sensor_id;sensor_type;location;lat;lon;timestamp;pressure;altitude;pressure_sealevel;temperature;humidity
31005;BME280;17676;52.254;4.490;2023-05-22T00:00:09;101552.28;;;14.90;100.00
31005;BME280;17676;52.254;4.490;2023-05-22T00:02:37;101558.19;;;14.87;100.00
31005;BME280;17676;52.254;4.490;2023-05-22T00:05:07;101546.44;;;14.86;100.00
31005;BME280;17676;52.254;4.490;2023-05-22T00:07:34;101547.72;;;14.83;100.00
31005;BME280;17676;52.254;4.490;2023-05-22T00:09:59;101539.75;;;14.82;100.00
31005;BME280;17676;52.254;4.490;2023-05-22T00:12:25;101545.63;;;14.79;100.00
31005;BME280;17676;52.254;4.490;2023-05-22T00:14:50;101539.97;;;14.80;100.00
31005;BME280;17676;52.254;4.490;2023-05-22T00:17:17;101544.38;;;14.82;100.00
31005;BME280;17676;52.254;4.490;2023-05-22T00:19:42;101535.13;;;14.82;100.00
31005;BME280;17676;52.254;4.490;2023-05-22T00:22:08;101530.13;;;14.79;100.00
31005;BME280;17676;52.254;4.490;2023-05-22T00:24:33;101530.75;;;14.82;100.00
31005;BME280;17676;52.254;4.490;2023-05-22T00:26:59;101532.25;;;14.77;100.00
31005;BME280;17676;52.254;4.490;2023-05-22T00:29:24;101530.53;;;14.76;100.00
31005;BME280;17676;52.254;4.490;2023-05-22T00:31:49;101529.31;;;14.72;100.00
31005;BME280;17676;52.254;4.490;2023-05-22T00:34:15;101527.91;;;14.63;100.00
31005;BME280;17676;52.254;4.490;2023-05-22T00:36:40;101535.66;;;14.66;100.00
31005;BME280;17676;52.254;4.490;2023-05-22T00:39:06;101538.97;;;14.68;100.00
31005;BME280;17676;52.254;4.490;2023-05-22T00:41:31;101542.97;;;14.66;100.00
31005;BME280;17676;52.254;4.490;2023-05-22T00:44:01;101547.34;;;14.73;100.00
31005;BME280;17676;52.254;4.490;2023-05-22T00:46:27;101544.63;;;14.73;100.00
31005;BME280;17676;52.254;4.490;2023-05-22T00:48:52;101544.38;;;14.75;100.00
31005;BME280;17676;52.254;4.490;2023-05-22T00:51:21;101545.88;;;14.77;100.00
31005;BME280;17676;52.254;4.490;2023-05-22T00:53:48;101544.38;;;14.82;100.00
31005;BME280;17676;52.254;4.490;2023-05-22T00:56:14;101542.28;;;14.77;100.00
31005;BME280;17676;52.254;4.490;2023-05-22T00:58:40;101544.00;;;14.71;100.00
31005;BME280;17676;52.254;4.490;2023-05-22T01:01:06;101549.09;;;14.61;100.00
31005;BME280;17676;52.254;4.490;2023-05-22T01:03:35;101563.75;;;14.60;100.00
31005;BME280;17676;52.254;4.490;2023-05-22T01:06:02;101560.03;;;14.55;100.00
31005;BME280;17676;52.254;4.490;2023-05-22T01:08:28;101566.22;;;14.68;100.00
31005;BME280;17676;52.254;4.490;2023-05-22T01:11:04;101560.31;;;14.78;100.00
31005;BME280;17676;52.254;4.490;2023-05-22T01:16:25;101551.66;;;14.88;100.00
31005;BME280;17676;52.254;4.490;2023-05-22T01:22:05;101531.31;;;14.90;100.00
31005;BME280;17676;52.254;4.490;2023-05-22T01:27:05;101532.25;;;14.77;100.00
31005;BME280;17676;52.254;4.490;2023-05-22T01:32:39;101518.41;;;14.72;100.00
31005;BME280;17676;52.254;4.490;2023-05-22T01:35:09;101527.22;;;14.74;100.00
31005;BME280;17676;52.254;4.490;2023-05-22T01:37:37;101509.81;;;14.75;100.00
31005;BME280;17676;52.254;4.490;2023-05-22T01:40:03;101510.81;;;14.81;100.00
31005;BME280;17676;52.254;4.490;2023-05-22T01:42:30;101496.19;;;14.75;100.00
31005;BME280;17676;52.254;4.490;2023-05-22T01:44:56;101497.47;;;14.73;100.00
31005;BME280;17676;52.254;4.490;2023-05-22T01:47:22;101482.38;;;14.70;100.00
31005;BME280;17676;52.254;4.490;2023-05-22T01:49:47;101489.16;;;14.61;100.00
31005;BME280;17676;52.254;4.490;2023-05-22T01:55:20;101476.19;;;14.57;100.00
31005;BME280;17676;52.254;4.490;2023-05-22T01:58:03;101469.88;;;14.63;100.00
31005;BME280;17676;52.254;4.490;2023-05-22T02:00:34;101465.72;;;14.54;100.00
31005;BME280;17676;52.254;4.490;2023-05-22T02:03:07;101451.28;;;14.53;100.00
31005;BME280;17676;52.254;4.490;2023-05-22T02:05:37;101439.75;;;14.51;100.00
31005;BME280;17676;52.254;4.490;2023-05-22T02:08:04;101442.66;;;14.56;100.00
31005;BME280;17676;52.254;4.490;2023-05-22T02:10:32;101437.19;;;14.56;100.00
31005;BME280;17676;52.254;4.490;2023-05-22T02:12:58;101431.31;;;14.59;100.00
31005;BME280;17676;52.254;4.490;2023-05-22T02:15:24;101428.38;;;14.61;100.00
31005;BME280;17676;52.254;4.490;2023-05-22T02:17:49;101423.31;;;14.64;100.00
31005;BME280;17676;52.254;4.490;2023-05-22T02:20:17;101426.66;;;14.66;100.00
31005;BME280;17676;52.254;4.490;2023-05-22T02:22:44;101424.53;;;14.68;100.00
31005;BME280;17676;52.254;4.490;2023-05-22T02:25:11;101424.53;;;14.68;100.00
31005;BME280;17676;52.254;4.490;2023-05-22T02:27:42;101427.53;;;14.60;100.00
31005;BME280;17676;52.254;4.490;2023-05-22T02:30:09;101419.34;;;14.60;100.00
31005;BME280;17676;52.254;4.490;2023-05-22T02:32:35;101417.41;;;14.67;100.00
31005;BME280;17676;52.254;4.490;2023-05-22T02:35:00;101414.09;;;14.65;100.00
31005;BME280;17676;52.254;4.490;2023-05-22T02:37:26;101424.16;;;14.65;100.00
31005;BME280;17676;52.254;4.490;2023-05-22T02:39:51;101426.06;;;14.58;100.00
31005;BME280;17676;52.254;4.490;2023-05-22T02:42:17;101413.69;;;14.62;100.00
31005;BME280;17676;52.254;4.490;2023-05-22T02:44:42;101418.91;;;14.63;100.00
31005;BME280;17676;52.254;4.490;2023-05-22T02:47:07;101425.06;;;14.59;100.00
31005;BME280;17676;52.254;4.490;2023-05-22T02:49:33;101419.13;;;14.62;100.00
31005;BME280;17676;52.254;4.490;2023-05-22T02:51:58;101426.03;;;14.64;100.00
31005;BME280;17676;52.254;4.490;2023-05-22T02:54:23;101422.88;;;14.67;100.00
31005;BME280;17676;52.254;4.490;2023-05-22T02:56:49;101424.72;;;14.73;100.00
31005;BME280;17676;52.254;4.490;2023-05-22T02:59:14;101421.09;;;14.79;100.00
31005;BME280;17676;52.254;4.490;2023-05-22T03:01:40;101423.03;;;14.72;100.00
31005;BME280;17676;52.254;4.490;2023-05-22T03:04:06;101415.31;;;14.69;100.00
31005;BME280;17676;52.254;4.490;2023-05-22T03:06:31;101422.75;;;14.56;100.00
31005;BME280;17676;52.254;4.490;2023-05-22T03:08:58;101426.75;;;14.53;100.00
31005;BME280;17676;52.254;4.490;2023-05-22T03:11:23;101420.50;;;14.46;100.00
31005;BME280;17676;52.254;4.490;2023-05-22T03:13:49;101428.91;;;14.45;100.00
31005;BME280;17676;52.254;4.490;2023-05-22T03:16:15;101429.28;;;14.48;100.00
31005;BME280;17676;52.254;4.490;2023-05-22T03:18:40;101429.28;;;14.48;100.00
31005;BME280;17676;52.254;4.490;2023-05-22T03:21:05;101433.59;;;14.31;100.00
31005;BME280;17676;52.254;4.490;2023-05-22T03:23:31;101434.22;;;14.33;100.00
31005;BME280;17676;52.254;4.490;2023-05-22T03:25:56;101431.13;;;14.17;100.00
31005;BME280;17676;52.254;4.490;2023-05-22T03:28:22;101424.44;;;14.13;100.00
31005;BME280;17676;52.254;4.490;2023-05-22T03:30:47;101429.44;;;14.22;100.00
31005;BME280;17676;52.254;4.490;2023-05-22T03:33:12;101438.44;;;14.29;100.00
31005;BME280;17676;52.254;4.490;2023-05-22T03:35:38;101437.38;;;14.30;100.00
31005;BME280;17676;52.254;4.490;2023-05-22T03:38:03;101424.41;;;14.19;100.00
31005;BME280;17676;52.254;4.490;2023-05-22T03:40:29;101433.63;;;14.25;100.00
31005;BME280;17676;52.254;4.490;2023-05-22T03:42:54;101437.38;;;14.30;100.00
31005;BME280;17676;52.254;4.490;2023-05-22T03:45:20;101436.47;;;14.36;100.00
31005;BME280;17676;52.254;4.490;2023-05-22T03:47:45;101434.16;;;14.40;100.00
31005;BME280;17676;52.254;4.490;2023-05-22T03:50:11;101433.06;;;14.47;100.00
31005;BME280;17676;52.254;4.490;2023-05-22T03:52:37;101430.50;;;14.52;100.00
31005;BME280;17676;52.254;4.490;2023-05-22T03:55:03;101436.75;;;14.59;100.00
31005;BME280;17676;52.254;4.490;2023-05-22T03:57:28;101426.06;;;14.58;100.00
31005;BME280;17676;52.254;4.490;2023-05-22T03:59:54;101435.94;;;14.59;100.00
31005;BME280;17676;52.254;4.490;2023-05-22T04:02:19;101424.84;;;14.54;100.00
31005;BME280;17676;52.254;4.490;2023-05-22T04:04:45;101433.81;;;14.61;100.00
31005;BME280;17676;52.254;4.490;2023-05-22T04:07:12;101430.50;;;14.59;100.00
31005;BME280;17676;52.254;4.490;2023-05-22T04:09:38;101431.94;;;14.61;100.00
31005;BME280;17676;52.254;4.490;2023-05-22T04:12:04;101432.53;;;14.63;100.00
31005;BME280;17676;52.254;4.490;2023-05-22T04:14:30;101429.56;;;14.71;100.00
31005;BME280;17676;52.254;4.490;2023-05-22T04:16:56;101420.78;;;14.69;100.00
31005;BME280;17676;52.254;4.490;2023-05-22T04:19:22;101415.50;;;14.74;100.00
31005;BME280;17676;52.254;4.490;2023-05-22T04:21:47;101429.94;;;14.75;100.00
31005;BME280;17676;52.254;4.490;2023-05-22T04:24:13;101430.94;;;14.80;100.00
31005;BME280;17676;52.254;4.490;2023-05-22T04:26:38;101436.19;;;14.82;100.00
31005;BME280;17676;52.254;4.490;2023-05-22T04:29:04;101441.84;;;14.80;100.00
31005;BME280;17676;52.254;4.490;2023-05-22T04:31:34;101438.25;;;14.87;100.00
31005;BME280;17676;52.254;4.490;2023-05-22T04:34:00;101446.44;;;14.87;100.00
31005;BME280;17676;52.254;4.490;2023-05-22T04:36:25;101434.91;;;14.84;100.00
31005;BME280;17676;52.254;4.490;2023-05-22T04:38:52;101436.22;;;14.75;100.00
31005;BME280;17676;52.254;4.490;2023-05-22T04:41:18;101452.38;;;14.77;100.00
31005;BME280;17676;52.254;4.490;2023-05-22T04:43:44;101450.03;;;14.80;100.00
31005;BME280;17676;52.254;4.490;2023-05-22T04:46:09;101445.34;;;14.88;100.00
31005;BME280;17676;52.254;4.490;2023-05-22T04:48:34;101438.25;;;14.87;100.00
31005;BME280;17676;52.254;4.490;2023-05-22T04:51:01;101447.75;;;15.02;100.00
31005;BME280;17676;52.254;4.490;2023-05-22T04:53:26;101436.72;;;15.15;100.00
31005;BME280;17676;52.254;4.490;2023-05-22T04:55:53;101441.09;;;15.23;100.00
31005;BME280;17676;52.254;4.490;2023-05-22T04:58:18;101445.81;;;15.34;100.00
31005;BME280;17676;52.254;4.490;2023-05-22T05:00:43;101431.88;;;15.42;100.00
31005;BME280;17676;52.254;4.490;2023-05-22T05:03:09;101432.81;;;15.36;100.00
31005;BME280;17676;52.254;4.490;2023-05-22T05:05:35;101444.56;;;15.36;100.00
31005;BME280;17676;52.254;4.490;2023-05-22T05:08:01;101443.34;;;15.50;100.00
31005;BME280;17676;52.254;4.490;2023-05-22T05:10:26;101447.22;;;15.61;100.00
31005;BME280;17676;52.254;4.490;2023-05-22T05:12:52;101446.34;;;15.67;100.00
31005;BME280;17676;52.254;4.490;2023-05-22T05:15:17;101458.00;;;15.74;100.00
31005;BME280;17676;52.254;4.490;2023-05-22T05:17:49;101461.25;;;15.82;100.00
31005;BME280;17676;52.254;4.490;2023-05-22T05:20:14;101470.81;;;15.91;100.00
31005;BME280;17676;52.254;4.490;2023-05-22T05:22:40;101479.09;;;16.03;100.00
31005;BME280;17676;52.254;4.490;2023-05-22T05:25:08;101466.78;;;16.12;100.00
31005;BME280;17676;52.254;4.490;2023-05-22T05:27:33;101469.75;;;16.10;100.00
31005;BME280;17676;52.254;4.490;2023-05-22T05:29:59;101468.69;;;16.29;100.00
31005;BME280;17676;52.254;4.490;2023-05-22T05:32:26;101463.22;;;16.29;100.00
31005;BME280;17676;52.254;4.490;2023-05-22T05:34:51;101458.84;;;16.40;100.00
31005;BME280;17676;52.254;4.490;2023-05-22T05:37:17;101469.38;;;16.43;100.00
31005;BME280;17676;52.254;4.490;2023-05-22T05:39:42;101475.41;;;16.45;100.00
31005;BME280;17676;52.254;4.490;2023-05-22T05:42:07;101469.72;;;16.46;100.00
31005;BME280;17676;52.254;4.490;2023-05-22T05:44:33;101480.09;;;16.56;100.00
31005;BME280;17676;52.254;4.490;2023-05-22T05:46:58;101474.81;;;16.72;100.00
31005;BME280;17676;52.254;4.490;2023-05-22T05:49:24;101473.03;;;16.78;100.00
31005;BME280;17676;52.254;4.490;2023-05-22T05:51:49;101475.53;;;16.68;100.00
31005;BME280;17676;52.254;4.490;2023-05-22T05:54:15;101471.34;;;16.65;100.00
31005;BME280;17676;52.254;4.490;2023-05-22T05:56:40;101474.91;;;16.66;100.00
31005;BME280;17676;52.254;4.490;2023-05-22T05:59:06;101475.38;;;16.63;100.00
31005;BME280;17676;52.254;4.490;2023-05-22T06:01:33;101478.72;;;16.65;100.00
31005;BME280;17676;52.254;4.490;2023-05-22T06:03:59;101468.22;;;16.62;100.00
31005;BME280;17676;52.254;4.490;2023-05-22T06:06:28;101469.44;;;16.66;100.00
31005;BME280;17676;52.254;4.490;2023-05-22T06:09:10;101475.13;;;16.64;100.00
31005;BME280;17676;52.254;4.490;2023-05-22T06:11:36;101470.25;;;16.55;100.00
31005;BME280;17676;52.254;4.490;2023-05-22T06:14:02;101477.25;;;16.51;100.00
31005;BME280;17676;52.254;4.490;2023-05-22T06:16:28;101477.59;;;16.54;100.00
31005;BME280;17676;52.254;4.490;2023-05-22T06:18:54;101487.78;;;16.47;100.00
31005;BME280;17676;52.254;4.490;2023-05-22T06:21:21;101482.78;;;16.44;100.00
31005;BME280;17676;52.254;4.490;2023-05-22T06:23:47;101470.94;;;16.50;100.00
31005;BME280;17676;52.254;4.490;2023-05-22T06:26:14;101480.09;;;16.56;100.00
31005;BME280;17676;52.254;4.490;2023-05-22T06:28:40;101479.72;;;16.52;100.00
31005;BME280;17676;52.254;4.490;2023-05-22T06:31:05;101472.38;;;16.53;100.00
31005;BME280;17676;52.254;4.490;2023-05-22T06:33:31;101477.59;;;16.54;100.00
31005;BME280;17676;52.254;4.490;2023-05-22T06:35:58;101481.66;;;16.63;100.00
31005;BME280;17676;52.254;4.490;2023-05-22T06:38:23;101488.56;;;16.66;100.00
31005;BME280;17676;52.254;4.490;2023-05-22T06:40:49;101501.56;;;16.70;100.00
31005;BME280;17676;52.254;4.490;2023-05-22T06:43:14;101525.53;;;16.68;100.00
31005;BME280;17676;52.254;4.490;2023-05-22T06:45:40;101529.88;;;16.76;100.00
31005;BME280;17676;52.254;4.490;2023-05-22T06:48:05;101526.59;;;16.85;100.00
31005;BME280;17676;52.254;4.490;2023-05-22T06:50:30;101537.09;;;17.00;100.00
31005;BME280;17676;52.254;4.490;2023-05-22T06:52:56;101514.13;;;17.42;100.00
31005;BME280;17676;52.254;4.490;2023-05-22T06:55:22;101511.28;;;18.45;100.00
31005;BME280;17676;52.254;4.490;2023-05-22T06:57:47;101510.34;;;19.41;100.00
31005;BME280;17676;52.254;4.490;2023-05-22T07:00:13;101504.25;;;20.53;100.00
31005;BME280;17676;52.254;4.490;2023-05-22T07:02:39;101491.44;;;21.48;100.00
31005;BME280;17676;52.254;4.490;2023-05-22T07:05:05;101486.47;;;21.13;100.00
31005;BME280;17676;52.254;4.490;2023-05-22T07:07:31;101496.19;;;20.94;100.00
31005;BME280;17676;52.254;4.490;2023-05-22T07:09:56;101489.00;;;21.51;100.00
31005;BME280;17676;52.254;4.490;2023-05-22T07:12:22;101492.28;;;22.41;100.00
31005;BME280;17676;52.254;4.490;2023-05-22T07:14:51;101496.50;;;22.02;100.00
31005;BME280;17676;52.254;4.490;2023-05-22T07:17:16;101496.59;;;21.71;100.00
31005;BME280;17676;52.254;4.490;2023-05-22T07:19:42;101501.78;;;21.67;100.00
31005;BME280;17676;52.254;4.490;2023-05-22T07:22:08;101497.03;;;21.99;100.00
31005;BME280;17676;52.254;4.490;2023-05-22T07:24:33;101497.78;;;21.85;100.00
31005;BME280;17676;52.254;4.490;2023-05-22T07:26:59;101509.38;;;21.19;100.00
31005;BME280;17676;52.254;4.490;2023-05-22T07:29:25;101501.16;;;20.71;100.00
31005;BME280;17676;52.254;4.490;2023-05-22T07:31:50;101507.84;;;20.32;100.00
31005;BME280;17676;52.254;4.490;2023-05-22T07:34:18;101512.72;;;20.25;100.00
31005;BME280;17676;52.254;4.490;2023-05-22T07:36:44;101514.66;;;20.72;100.00
31005;BME280;17676;52.254;4.490;2023-05-22T07:39:09;101511.47;;;21.38;100.00
31005;BME280;17676;52.254;4.490;2023-05-22T07:41:35;101504.38;;;22.35;100.00
31005;BME280;17676;52.254;4.490;2023-05-22T07:44:00;101508.25;;;23.21;100.00
31005;BME280;17676;52.254;4.490;2023-05-22T07:46:25;101515.69;;;23.35;100.00
31005;BME280;17676;52.254;4.490;2023-05-22T07:48:51;101522.28;;;24.00;100.00
31005;BME280;17676;52.254;4.490;2023-05-22T07:51:16;101523.16;;;24.69;100.00
31005;BME280;17676;52.254;4.490;2023-05-22T07:53:43;101525.03;;;25.22;100.00
31005;BME280;17676;52.254;4.490;2023-05-22T07:56:08;101523.66;;;25.58;100.00
31005;BME280;17676;52.254;4.490;2023-05-22T07:58:34;101520.81;;;25.96;100.00
31005;BME280;17676;52.254;4.490;2023-05-22T08:00:59;101516.81;;;26.07;100.00
31005;BME280;17676;52.254;4.490;2023-05-22T08:03:25;101517.72;;;26.68;100.00
31005;BME280;17676;52.254;4.490;2023-05-22T08:05:54;101523.78;;;26.52;100.00
31005;BME280;17676;52.254;4.490;2023-05-22T08:08:19;101522.13;;;26.93;100.00
31005;BME280;17676;52.254;4.490;2023-05-22T08:10:44;101522.72;;;27.08;100.00
31005;BME280;17676;52.254;4.490;2023-05-22T08:13:13;101523.06;;;27.39;100.00
31005;BME280;17676;52.254;4.490;2023-05-22T08:15:39;101514.84;;;26.97;100.00
31005;BME280;17676;52.254;4.490;2023-05-22T08:18:05;101518.34;;;28.04;100.00
31005;BME280;17676;52.254;4.490;2023-05-22T08:20:30;101524.91;;;28.21;100.00
31005;BME280;17676;52.254;4.490;2023-05-22T08:22:56;101518.31;;;28.71;100.00
31005;BME280;17676;52.254;4.490;2023-05-22T08:25:21;101529.00;;;27.83;100.00
31005;BME280;17676;52.254;4.490;2023-05-22T08:27:47;101526.59;;;28.09;100.00
31005;BME280;17676;52.254;4.490;2023-05-22T08:30:12;101529.16;;;28.05;100.00
31005;BME280;17676;52.254;4.490;2023-05-22T08:32:38;101531.88;;;27.78;100.00
31005;BME280;17676;52.254;4.490;2023-05-22T08:35:03;101522.97;;;28.35;100.00
31005;BME280;17676;52.254;4.490;2023-05-22T08:37:29;101524.53;;;28.28;100.00
31005;BME280;17676;52.254;4.490;2023-05-22T08:39:54;101521.94;;;28.18;100.00
31005;BME280;17676;52.254;4.490;2023-05-22T08:42:20;101516.16;;;28.14;100.00
31005;BME280;17676;52.254;4.490;2023-05-22T08:44:46;101519.34;;;28.35;100.00
31005;BME280;17676;52.254;4.490;2023-05-22T08:47:13;101521.63;;;28.33;100.00
31005;BME280;17676;52.254;4.490;2023-05-22T08:49:39;101523.03;;;28.84;100.00
31005;BME280;17676;52.254;4.490;2023-05-22T08:52:09;101523.47;;;28.37;100.00
31005;BME280;17676;52.254;4.490;2023-05-22T08:54:40;101523.66;;;28.00;100.00
31005;BME280;17676;52.254;4.490;2023-05-22T08:57:07;101522.88;;;28.13;100.00
31005;BME280;17676;52.254;4.490;2023-05-22T08:59:37;101519.44;;;27.89;100.00
31005;BME280;17676;52.254;4.490;2023-05-22T09:02:05;101516.06;;;27.41;100.00
31005;BME280;17676;52.254;4.490;2023-05-22T09:04:31;101515.81;;;27.24;100.00
31005;BME280;17676;52.254;4.490;2023-05-22T09:06:56;101514.28;;;27.13;100.00
31005;BME280;17676;52.254;4.490;2023-05-22T09:09:21;101512.03;;;27.15;100.00
31005;BME280;17676;52.254;4.490;2023-05-22T09:11:48;101518.88;;;26.86;100.00
31005;BME280;17676;52.254;4.490;2023-05-22T09:14:13;101503.56;;;26.46;100.00
31005;BME280;17676;52.254;4.490;2023-05-22T09:16:48;101506.25;;;27.12;100.00
31005;BME280;17676;52.254;4.490;2023-05-22T09:19:14;101511.38;;;26.68;100.00
31005;BME280;17676;52.254;4.490;2023-05-22T09:21:40;101503.91;;;26.63;100.00
31005;BME280;17676;52.254;4.490;2023-05-22T09:24:08;101498.00;;;26.46;100.00
31005;BME280;17676;52.254;4.490;2023-05-22T09:26:34;101501.31;;;26.48;100.00
31005;BME280;17676;52.254;4.490;2023-05-22T09:29:00;101508.22;;;27.62;100.00
31005;BME280;17676;52.254;4.490;2023-05-22T09:31:27;101510.91;;;27.35;100.00
31005;BME280;17676;52.254;4.490;2023-05-22T09:33:53;101507.44;;;27.43;100.00
31005;BME280;17676;52.254;4.490;2023-05-22T09:36:20;101506.97;;;28.14;100.00
31005;BME280;17676;52.254;4.490;2023-05-22T09:38:46;101508.31;;;27.89;100.00
31005;BME280;17676;52.254;4.490;2023-05-22T09:41:11;101505.44;;;27.30;100.00
31005;BME280;17676;52.254;4.490;2023-05-22T09:43:37;101506.38;;;27.39;100.00
31005;BME280;17676;52.254;4.490;2023-05-22T09:46:02;101507.75;;;27.23;100.00
31005;BME280;17676;52.254;4.490;2023-05-22T09:48:30;101507.28;;;27.53;100.00
31005;BME280;17676;52.254;4.490;2023-05-22T09:50:59;101521.81;;;27.82;100.00
31005;BME280;17676;52.254;4.490;2023-05-22T09:53:26;101506.19;;;27.35;100.00
31005;BME280;17676;52.254;4.490;2023-05-22T09:55:55;101515.69;;;27.48;100.00
31005;BME280;17676;52.254;4.490;2023-05-22T09:58:25;101517.34;;;27.49;100.00
31005;BME280;17676;52.254;4.490;2023-05-22T10:00:52;101516.56;;;26.93;100.00
31005;BME280;17676;52.254;4.490;2023-05-22T10:03:21;101519.59;;;27.47;100.00
31005;BME280;17676;52.254;4.490;2023-05-22T10:05:50;101521.59;;;27.60;100.00
31005;BME280;17676;52.254;4.490;2023-05-22T10:08:20;101510.16;;;27.11;100.00
31005;BME280;17676;52.254;4.490;2023-05-22T10:10:49;101520.53;;;27.24;100.00
31005;BME280;17676;52.254;4.490;2023-05-22T10:13:17;101509.31;;;27.48;100.00
31005;BME280;17676;52.254;4.490;2023-05-22T10:15:42;101517.69;;;27.93;100.00
31005;BME280;17676;52.254;4.490;2023-05-22T10:18:08;101506.53;;;26.92;100.00
31005;BME280;17676;52.254;4.490;2023-05-22T10:20:34;101515.13;;;26.95;100.00
31005;BME280;17676;52.254;4.490;2023-05-22T10:23:01;101509.03;;;26.75;100.00
31005;BME280;17676;52.254;4.490;2023-05-22T10:25:27;101500.84;;;26.83;100.00
31005;BME280;17676;52.254;4.490;2023-05-22T10:27:53;101507.09;;;26.75;100.00
31005;BME280;17676;52.254;4.490;2023-05-22T10:30:49;101496.31;;;27.43;100.00
31005;BME280;17676;52.254;4.490;2023-05-22T10:33:21;101502.59;;;27.81;100.00
31005;BME280;17676;52.254;4.490;2023-05-22T10:35:51;101497.69;;;27.27;100.00
31005;BME280;17676;52.254;4.490;2023-05-22T10:38:38;101499.00;;;27.48;100.00
31005;BME280;17676;52.254;4.490;2023-05-22T10:41:08;101490.84;;;27.38;100.00
31005;BME280;17676;52.254;4.490;2023-05-22T10:43:39;101489.59;;;27.76;100.00
31005;BME280;17676;52.254;4.490;2023-05-22T10:46:06;101487.50;;;27.68;100.00
31005;BME280;17676;52.254;4.490;2023-05-22T10:48:45;101485.72;;;27.58;100.00
31005;BME280;17676;52.254;4.490;2023-05-22T10:51:18;101487.88;;;27.48;100.00
31005;BME280;17676;52.254;4.490;2023-05-22T10:53:44;101483.72;;;27.78;100.00
31005;BME280;17676;52.254;4.490;2023-05-22T10:56:13;101478.72;;;27.93;100.00
31005;BME280;17676;52.254;4.490;2023-05-22T10:58:43;101481.81;;;28.32;100.00
31005;BME280;17676;52.254;4.490;2023-05-22T11:01:16;101480.16;;;28.31;100.00
31005;BME280;17676;52.254;4.490;2023-05-22T11:09:30;101484.69;;;27.41;100.00
31005;BME280;17676;52.254;4.490;2023-05-22T11:15:00;101477.78;;;26.83;100.00
31005;BME280;17676;52.254;4.490;2023-05-22T11:17:28;101484.75;;;26.99;100.00
31005;BME280;17676;52.254;4.490;2023-05-22T11:22:29;101495.88;;;27.36;100.00
31005;BME280;17676;52.254;4.490;2023-05-22T11:24:54;101478.31;;;27.22;100.00
31005;BME280;17676;52.254;4.490;2023-05-22T11:27:20;101495.78;;;27.04;100.00
31005;BME280;17676;52.254;4.490;2023-05-22T11:29:46;101488.47;;;26.94;100.00
31005;BME280;17676;52.254;4.490;2023-05-22T11:32:12;101479.59;;;26.92;100.00
31005;BME280;17676;52.254;4.490;2023-05-22T11:34:45;101483.63;;;27.18;100.00
31005;BME280;17676;52.254;4.490;2023-05-22T11:37:11;101489.94;;;27.05;100.00
31005;BME280;17676;52.254;4.490;2023-05-22T11:39:36;101487.25;;;26.63;100.00
31005;BME280;17676;52.254;4.490;2023-05-22T11:42:02;101486.94;;;26.41;100.00
31005;BME280;17676;52.254;4.490;2023-05-22T11:44:29;101493.41;;;26.79;100.00
31005;BME280;17676;52.254;4.490;2023-05-22T11:46:54;101495.28;;;26.65;100.00
31005;BME280;17676;52.254;4.490;2023-05-22T11:49:21;101481.31;;;26.70;100.00
31005;BME280;17676;52.254;4.490;2023-05-22T11:51:48;101482.41;;;25.80;100.00
31005;BME280;17676;52.254;4.490;2023-05-22T11:54:17;101491.53;;;26.09;100.00
31005;BME280;17676;52.254;4.490;2023-05-22T11:56:44;101500.13;;;26.31;100.00
31005;BME280;17676;52.254;4.490;2023-05-22T11:59:09;101504.16;;;25.68;100.00
31005;BME280;17676;52.254;4.490;2023-05-22T12:01:35;101499.50;;;25.87;100.00
31005;BME280;17676;52.254;4.490;2023-05-22T12:04:01;101507.41;;;25.75;100.00
31005;BME280;17676;52.254;4.490;2023-05-22T12:06:26;101509.44;;;25.93;100.00
31005;BME280;17676;52.254;4.490;2023-05-22T12:08:52;101509.28;;;25.56;100.00
31005;BME280;17676;52.254;4.490;2023-05-22T12:11:18;101506.22;;;24.80;100.00
31005;BME280;17676;52.254;4.490;2023-05-22T12:13:43;101504.31;;;24.76;100.00
31005;BME280;17676;52.254;4.490;2023-05-22T12:16:19;101506.50;;;24.74;100.00
31005;BME280;17676;52.254;4.490;2023-05-22T12:18:53;101505.81;;;24.48;100.00
31005;BME280;17676;52.254;4.490;2023-05-22T12:21:20;101517.34;;;23.57;100.00
31005;BME280;17676;52.254;4.490;2023-05-22T12:23:49;101510.19;;;23.51;100.00
31005;BME280;17676;52.254;4.490;2023-05-22T12:26:15;101505.75;;;23.50;100.00
31005;BME280;17676;52.254;4.490;2023-05-22T12:28:41;101516.78;;;23.80;100.00
31005;BME280;17676;52.254;4.490;2023-05-22T12:31:06;101514.03;;;23.70;100.00
31005;BME280;17676;52.254;4.490;2023-05-22T12:33:32;101507.94;;;23.68;100.00
31005;BME280;17676;52.254;4.490;2023-05-22T12:35:58;101513.75;;;23.76;100.00
31005;BME280;17676;52.254;4.490;2023-05-22T12:38:32;101509.88;;;23.92;100.00
31005;BME280;17676;52.254;4.490;2023-05-22T12:40:58;101495.22;;;23.67;100.00
31005;BME280;17676;52.254;4.490;2023-05-22T12:43:24;101502.91;;;24.15;100.00
31005;BME280;17676;52.254;4.490;2023-05-22T12:45:50;101503.50;;;24.02;100.00
31005;BME280;17676;52.254;4.490;2023-05-22T12:48:16;101507.56;;;24.19;100.00
31005;BME280;17676;52.254;4.490;2023-05-22T12:50:43;101496.31;;;23.81;100.00
31005;BME280;17676;52.254;4.490;2023-05-22T12:53:09;101493.28;;;23.92;100.00
31005;BME280;17676;52.254;4.490;2023-05-22T12:55:34;101494.63;;;24.10;100.00
31005;BME280;17676;52.254;4.490;2023-05-22T12:58:00;101502.91;;;24.15;100.00
31005;BME280;17676;52.254;4.490;2023-05-22T13:00:25;101504.84;;;24.09;100.00
31005;BME280;17676;52.254;4.490;2023-05-22T13:02:51;101496.31;;;23.76;100.00